sensor_id;sensor_type;location;lat;lon;timestamp;P1;durP1;ratioP1;P2;durP2;ratioP2
62679;SDS011;48746;55.578;37.902;2022-07-18T00:00:24;33.83;;;19.80;;
62679;SDS011;48746;55.578;37.902;2022-07-18T00:02:50;38.53;;;28.33;;
62679;SDS011;48746;55.578;37.902;2022-07-18T00:05:17;37.95;;;30.23;;
62679;SDS011;48746;55.578;37.902;2022-07-18T00:07:43;39.13;;;29.95;;
62679;SDS011;48746;55.578;37.902;2022-07-18T00:10:09;34.47;;;26.52;;
62679;SDS011;48746;55.578;37.902;2022-07-18T00:12:36;30.08;;;22.10;;
62679;SDS011;48746;55.578;37.902;2022-07-18T00:15:03;25.02;;;18.90;;
62679;SDS011;48746;55.578;37.902;2022-07-18T00:17:29;25.70;;;17.25;;
62679;SDS011;48746;55.578;37.902;2022-07-18T00:19:55;19.35;;;15.68;;
62679;SDS011;48746;55.578;37.902;2022-07-18T00:25:26;23.92;;;15.48;;
62679;SDS011;48746;55.578;37.902;2022-07-18T00:27:52;22.30;;;12.82;;
62679;SDS011;48746;55.578;37.902;2022-07-18T00:30:19;18.02;;;11.55;;
62679;SDS011;48746;55.578;37.902;2022-07-18T00:32:45;18.98;;;11.27;;
62679;SDS011;48746;55.578;37.902;2022-07-18T00:35:11;19.08;;;11.43;;
62679;SDS011;48746;55.578;37.902;2022-07-18T00:37:37;18.52;;;10.65;;
62679;SDS011;48746;55.578;37.902;2022-07-18T00:40:04;15.60;;;9.93;;
62679;SDS011;48746;55.578;37.902;2022-07-18T00:42:31;19.00;;;11.13;;
62679;SDS011;48746;55.578;37.902;2022-07-18T00:44:57;18.35;;;11.68;;
62679;SDS011;48746;55.578;37.902;2022-07-18T00:47:23;16.05;;;10.13;;
62679;SDS011;48746;55.578;37.902;2022-07-18T00:49:50;18.88;;;9.55;;
62679;SDS011;48746;55.578;37.902;2022-07-18T00:55:23;13.23;;;7.38;;
62679;SDS011;48746;55.578;37.902;2022-07-18T00:57:49;14.00;;;7.57;;
62679;SDS011;48746;55.578;37.902;2022-07-18T01:00:16;15.57;;;7.13;;
62679;SDS011;48746;55.578;37.902;2022-07-18T01:03:00;10.07;;;6.63;;
62679;SDS011;48746;55.578;37.902;2022-07-18T01:05:27;9.07;;;6.60;;
62679;SDS011;48746;55.578;37.902;2022-07-18T01:07:54;10.32;;;6.47;;
62679;SDS011;48746;55.578;37.902;2022-07-18T01:10:23;12.20;;;6.38;;
62679;SDS011;48746;55.578;37.902;2022-07-18T01:12:50;11.60;;;7.03;;
62679;SDS011;48746;55.578;37.902;2022-07-18T01:15:16;10.75;;;6.32;;
62679;SDS011;48746;55.578;37.902;2022-07-18T01:17:42;10.50;;;6.07;;
62679;SDS011;48746;55.578;37.902;2022-07-18T01:20:08;10.63;;;5.82;;
62679;SDS011;48746;55.578;37.902;2022-07-18T01:22:36;13.98;;;7.20;;
62679;SDS011;48746;55.578;37.902;2022-07-18T01:25:05;8.68;;;5.95;;
62679;SDS011;48746;55.578;37.902;2022-07-18T01:27:32;13.18;;;7.90;;
62679;SDS011;48746;55.578;37.902;2022-07-18T01:29:58;9.20;;;7.10;;
62679;SDS011;48746;55.578;37.902;2022-07-18T01:32:24;12.15;;;7.68;;
62679;SDS011;48746;55.578;37.902;2022-07-18T01:34:51;11.25;;;7.90;;
62679;SDS011;48746;55.578;37.902;2022-07-18T01:37:17;9.10;;;7.85;;
62679;SDS011;48746;55.578;37.902;2022-07-18T01:39:44;9.27;;;7.75;;
62679;SDS011;48746;55.578;37.902;2022-07-18T01:42:11;14.48;;;7.35;;
62679;SDS011;48746;55.578;37.902;2022-07-18T01:44:38;8.23;;;5.43;;
62679;SDS011;48746;55.578;37.902;2022-07-18T01:47:05;10.02;;;6.40;;
62679;SDS011;48746;55.578;37.902;2022-07-18T01:49:32;12.05;;;7.28;;
62679;SDS011;48746;55.578;37.902;2022-07-18T01:55:06;9.52;;;6.00;;
62679;SDS011;48746;55.578;37.902;2022-07-18T01:57:33;10.88;;;5.50;;
62679;SDS011;48746;55.578;37.902;2022-07-18T02:00:00;16.70;;;6.18;;
62679;SDS011;48746;55.578;37.902;2022-07-18T02:02:26;6.93;;;5.00;;
62679;SDS011;48746;55.578;37.902;2022-07-18T02:04:52;10.07;;;6.45;;
62679;SDS011;48746;55.578;37.902;2022-07-18T02:07:29;9.60;;;6.85;;
62679;SDS011;48746;55.578;37.902;2022-07-18T02:10:01;17.40;;;6.47;;
62679;SDS011;48746;55.578;37.902;2022-07-18T02:12:29;13.65;;;6.85;;
62679;SDS011;48746;55.578;37.902;2022-07-18T02:14:55;10.52;;;7.75;;
62679;SDS011;48746;55.578;37.902;2022-07-18T02:17:21;10.82;;;6.95;;
62679;SDS011;48746;55.578;37.902;2022-07-18T02:19:47;19.17;;;8.88;;
62679;SDS011;48746;55.578;37.902;2022-07-18T02:22:14;12.63;;;8.80;;
62679;SDS011;48746;55.578;37.902;2022-07-18T02:24:40;15.85;;;9.40;;
62679;SDS011;48746;55.578;37.902;2022-07-18T02:27:07;12.90;;;8.07;;
62679;SDS011;48746;55.578;37.902;2022-07-18T02:29:35;10.80;;;7.20;;
62679;SDS011;48746;55.578;37.902;2022-07-18T02:32:02;15.68;;;6.90;;
62679;SDS011;48746;55.578;37.902;2022-07-18T02:34:28;12.93;;;6.90;;
62679;SDS011;48746;55.578;37.902;2022-07-18T02:36:55;10.45;;;7.40;;
62679;SDS011;48746;55.578;37.902;2022-07-18T02:39:22;10.23;;;6.97;;
62679;SDS011;48746;55.578;37.902;2022-07-18T02:41:48;9.65;;;7.63;;
62679;SDS011;48746;55.578;37.902;2022-07-18T02:44:14;11.95;;;7.80;;
62679;SDS011;48746;55.578;37.902;2022-07-18T02:46:41;12.02;;;7.55;;
62679;SDS011;48746;55.578;37.902;2022-07-18T02:49:07;13.43;;;7.32;;
62679;SDS011;48746;55.578;37.902;2022-07-18T02:54:42;11.82;;;8.18;;
62679;SDS011;48746;55.578;37.902;2022-07-18T02:57:08;15.95;;;8.00;;
62679;SDS011;48746;55.578;37.902;2022-07-18T02:59:34;10.13;;;7.35;;
62679;SDS011;48746;55.578;37.902;2022-07-18T03:02:00;16.38;;;8.18;;
62679;SDS011;48746;55.578;37.902;2022-07-18T03:04:27;11.55;;;7.68;;
62679;SDS011;48746;55.578;37.902;2022-07-18T03:06:53;14.35;;;8.48;;
62679;SDS011;48746;55.578;37.902;2022-07-18T03:09:20;12.70;;;8.05;;
62679;SDS011;48746;55.578;37.902;2022-07-18T03:11:46;19.40;;;10.68;;
62679;SDS011;48746;55.578;37.902;2022-07-18T03:14:12;14.77;;;8.90;;
62679;SDS011;48746;55.578;37.902;2022-07-18T03:16:39;12.15;;;8.77;;
62679;SDS011;48746;55.578;37.902;2022-07-18T03:19:05;14.82;;;9.48;;
62679;SDS011;48746;55.578;37.902;2022-07-18T03:24:36;17.23;;;9.40;;
62679;SDS011;48746;55.578;37.902;2022-07-18T03:27:02;12.70;;;8.43;;
62679;SDS011;48746;55.578;37.902;2022-07-18T03:29:28;13.90;;;7.80;;
62679;SDS011;48746;55.578;37.902;2022-07-18T03:31:54;10.23;;;6.47;;
62679;SDS011;48746;55.578;37.902;2022-07-18T03:34:21;12.88;;;7.38;;
62679;SDS011;48746;55.578;37.902;2022-07-18T03:36:47;12.13;;;7.55;;
62679;SDS011;48746;55.578;37.902;2022-07-18T03:39:13;12.55;;;7.72;;
62679;SDS011;48746;55.578;37.902;2022-07-18T03:44:46;16.50;;;8.77;;
62679;SDS011;48746;55.578;37.902;2022-07-18T03:47:12;18.58;;;11.10;;
62679;SDS011;48746;55.578;37.902;2022-07-18T03:49:38;14.52;;;9.00;;
62679;SDS011;48746;55.578;37.902;2022-07-18T03:52:05;13.30;;;7.65;;
62679;SDS011;48746;55.578;37.902;2022-07-18T03:54:31;11.43;;;6.88;;
62679;SDS011;48746;55.578;37.902;2022-07-18T03:56:57;14.68;;;7.40;;
62679;SDS011;48746;55.578;37.902;2022-07-18T03:59:24;15.52;;;8.00;;
62679;SDS011;48746;55.578;37.902;2022-07-18T04:01:50;14.02;;;9.07;;
62679;SDS011;48746;55.578;37.902;2022-07-18T04:04:16;15.57;;;9.10;;
62679;SDS011;48746;55.578;37.902;2022-07-18T04:06:42;15.30;;;8.93;;
62679;SDS011;48746;55.578;37.902;2022-07-18T04:09:09;11.63;;;8.05;;
62679;SDS011;48746;55.578;37.902;2022-07-18T04:14:38;11.48;;;7.30;;
62679;SDS011;48746;55.578;37.902;2022-07-18T04:17:05;11.77;;;7.75;;
62679;SDS011;48746;55.578;37.902;2022-07-18T04:19:31;15.70;;;8.65;;
62679;SDS011;48746;55.578;37.902;2022-07-18T04:25:04;12.68;;;7.55;;
62679;SDS011;48746;55.578;37.902;2022-07-18T04:27:30;12.80;;;7.30;;
62679;SDS011;48746;55.578;37.902;2022-07-18T04:29:56;13.02;;;7.40;;
62679;SDS011;48746;55.578;37.902;2022-07-18T04:32:22;10.98;;;6.95;;
62679;SDS011;48746;55.578;37.902;2022-07-18T04:34:49;8.70;;;6.30;;
62679;SDS011;48746;55.578;37.902;2022-07-18T04:37:15;9.30;;;7.05;;
62679;SDS011;48746;55.578;37.902;2022-07-18T04:39:41;10.32;;;7.15;;
62679;SDS011;48746;55.578;37.902;2022-07-18T04:45:13;13.68;;;7.78;;
62679;SDS011;48746;55.578;37.902;2022-07-18T04:47:41;15.98;;;8.35;;
62679;SDS011;48746;55.578;37.902;2022-07-18T04:50:07;11.32;;;7.50;;
62679;SDS011;48746;55.578;37.902;2022-07-18T04:52:38;11.57;;;7.85;;
62679;SDS011;48746;55.578;37.902;2022-07-18T04:57:31;16.80;;;7.60;;
62679;SDS011;48746;55.578;37.902;2022-07-18T04:59:58;13.15;;;6.80;;
62679;SDS011;48746;55.578;37.902;2022-07-18T05:02:24;14.40;;;7.35;;
62679;SDS011;48746;55.578;37.902;2022-07-18T05:04:50;20.58;;;7.40;;
62679;SDS011;48746;55.578;37.902;2022-07-18T05:07:16;15.73;;;7.40;;
62679;SDS011;48746;55.578;37.902;2022-07-18T05:09:43;14.20;;;6.35;;
62679;SDS011;48746;55.578;37.902;2022-07-18T05:15:16;13.77;;;5.53;;
62679;SDS011;48746;55.578;37.902;2022-07-18T05:17:44;10.02;;;4.00;;
62679;SDS011;48746;55.578;37.902;2022-07-18T05:20:11;9.30;;;5.35;;
62679;SDS011;48746;55.578;37.902;2022-07-18T05:22:39;14.25;;;5.38;;
62679;SDS011;48746;55.578;37.902;2022-07-18T05:25:07;17.73;;;7.90;;
62679;SDS011;48746;55.578;37.902;2022-07-18T05:27:36;9.40;;;5.97;;
62679;SDS011;48746;55.578;37.902;2022-07-18T05:30:04;19.33;;;5.78;;
62679;SDS011;48746;55.578;37.902;2022-07-18T05:32:31;9.05;;;5.28;;
62679;SDS011;48746;55.578;37.902;2022-07-18T05:34:58;10.13;;;6.32;;
62679;SDS011;48746;55.578;37.902;2022-07-18T05:37:24;15.43;;;6.45;;
62679;SDS011;48746;55.578;37.902;2022-07-18T05:39:50;9.20;;;5.80;;
62679;SDS011;48746;55.578;37.902;2022-07-18T05:42:20;9.30;;;6.25;;
62679;SDS011;48746;55.578;37.902;2022-07-18T05:44:46;10.35;;;5.97;;
62679;SDS011;48746;55.578;37.902;2022-07-18T05:47:12;10.82;;;7.15;;
62679;SDS011;48746;55.578;37.902;2022-07-18T05:49:39;11.40;;;6.72;;
62679;SDS011;48746;55.578;37.902;2022-07-18T05:52:05;11.32;;;7.05;;
62679;SDS011;48746;55.578;37.902;2022-07-18T05:54:32;11.32;;;7.35;;
62679;SDS011;48746;55.578;37.902;2022-07-18T05:56:58;12.77;;;7.63;;
62679;SDS011;48746;55.578;37.902;2022-07-18T05:59:25;16.00;;;7.75;;
62679;SDS011;48746;55.578;37.902;2022-07-18T06:01:51;16.05;;;8.82;;
62679;SDS011;48746;55.578;37.902;2022-07-18T06:04:17;14.13;;;7.15;;
62679;SDS011;48746;55.578;37.902;2022-07-18T06:06:44;12.05;;;7.28;;
62679;SDS011;48746;55.578;37.902;2022-07-18T06:09:10;11.85;;;6.63;;
62679;SDS011;48746;55.578;37.902;2022-07-18T06:14:45;10.60;;;7.38;;
62679;SDS011;48746;55.578;37.902;2022-07-18T06:17:11;13.73;;;7.63;;
62679;SDS011;48746;55.578;37.902;2022-07-18T06:19:37;12.32;;;7.63;;
62679;SDS011;48746;55.578;37.902;2022-07-18T06:22:05;10.50;;;7.45;;
62679;SDS011;48746;55.578;37.902;2022-07-18T06:24:31;14.13;;;7.57;;
62679;SDS011;48746;55.578;37.902;2022-07-18T06:26:57;12.63;;;7.53;;
62679;SDS011;48746;55.578;37.902;2022-07-18T06:29:24;11.70;;;7.70;;
62679;SDS011;48746;55.578;37.902;2022-07-18T06:31:50;15.90;;;7.55;;
62679;SDS011;48746;55.578;37.902;2022-07-18T06:34:16;12.13;;;7.45;;
62679;SDS011;48746;55.578;37.902;2022-07-18T06:36:42;11.63;;;7.80;;
62679;SDS011;48746;55.578;37.902;2022-07-18T06:39:09;10.88;;;7.28;;
62679;SDS011;48746;55.578;37.902;2022-07-18T06:44:43;13.00;;;6.60;;
62679;SDS011;48746;55.578;37.902;2022-07-18T06:47:09;9.73;;;5.70;;
62679;SDS011;48746;55.578;37.902;2022-07-18T06:49:35;12.23;;;5.35;;
62679;SDS011;48746;55.578;37.902;2022-07-18T06:52:02;9.70;;;5.45;;
62679;SDS011;48746;55.578;37.902;2022-07-18T06:54:28;8.73;;;6.05;;
62679;SDS011;48746;55.578;37.902;2022-07-18T06:56:56;9.43;;;6.30;;
62679;SDS011;48746;55.578;37.902;2022-07-18T06:59:22;12.18;;;6.10;;
62679;SDS011;48746;55.578;37.902;2022-07-18T07:01:48;10.15;;;6.28;;
62679;SDS011;48746;55.578;37.902;2022-07-18T07:04:18;8.93;;;6.10;;
62679;SDS011;48746;55.578;37.902;2022-07-18T07:06:44;12.10;;;5.88;;
62679;SDS011;48746;55.578;37.902;2022-07-18T07:09:11;11.43;;;5.95;;
62679;SDS011;48746;55.578;37.902;2022-07-18T07:14:40;6.07;;;4.10;;
62679;SDS011;48746;55.578;37.902;2022-07-18T07:17:06;6.90;;;4.25;;
62679;SDS011;48746;55.578;37.902;2022-07-18T07:19:33;6.50;;;3.88;;
62679;SDS011;48746;55.578;37.902;2022-07-18T07:21:59;8.15;;;4.40;;
62679;SDS011;48746;55.578;37.902;2022-07-18T07:24:25;5.30;;;3.60;;
62679;SDS011;48746;55.578;37.902;2022-07-18T07:26:51;8.27;;;4.10;;
62679;SDS011;48746;55.578;37.902;2022-07-18T07:29:18;5.68;;;2.90;;
62679;SDS011;48746;55.578;37.902;2022-07-18T07:34:51;7.50;;;2.35;;
62679;SDS011;48746;55.578;37.902;2022-07-18T07:37:17;4.38;;;2.67;;
62679;SDS011;48746;55.578;37.902;2022-07-18T07:39:44;6.72;;;2.65;;
62679;SDS011;48746;55.578;37.902;2022-07-18T07:42:10;3.95;;;3.10;;
62679;SDS011;48746;55.578;37.902;2022-07-18T07:44:36;8.85;;;3.15;;
62679;SDS011;48746;55.578;37.902;2022-07-18T07:47:02;6.40;;;2.28;;
62679;SDS011;48746;55.578;37.902;2022-07-18T07:49:28;6.93;;;2.50;;
62679;SDS011;48746;55.578;37.902;2022-07-18T07:51:54;5.50;;;2.55;;
62679;SDS011;48746;55.578;37.902;2022-07-18T07:54:20;5.05;;;2.42;;
62679;SDS011;48746;55.578;37.902;2022-07-18T07:56:47;8.02;;;2.40;;
62679;SDS011;48746;55.578;37.902;2022-07-18T07:59:12;5.72;;;3.35;;
62679;SDS011;48746;55.578;37.902;2022-07-18T08:01:42;4.90;;;2.20;;
62679;SDS011;48746;55.578;37.902;2022-07-18T08:04:08;4.57;;;2.55;;
62679;SDS011;48746;55.578;37.902;2022-07-18T08:06:33;4.57;;;2.83;;
62679;SDS011;48746;55.578;37.902;2022-07-18T08:09:00;4.45;;;2.40;;
62679;SDS011;48746;55.578;37.902;2022-07-18T08:11:29;3.50;;;2.08;;
62679;SDS011;48746;55.578;37.902;2022-07-18T08:13:55;6.32;;;2.63;;
62679;SDS011;48746;55.578;37.902;2022-07-18T08:16:22;4.35;;;2.30;;
62679;SDS011;48746;55.578;37.902;2022-07-18T08:18:48;3.95;;;2.75;;
62679;SDS011;48746;55.578;37.902;2022-07-18T08:21:18;3.80;;;2.40;;
62679;SDS011;48746;55.578;37.902;2022-07-18T08:23:45;3.17;;;2.33;;
62679;SDS011;48746;55.578;37.902;2022-07-18T08:26:13;7.18;;;2.28;;
62679;SDS011;48746;55.578;37.902;2022-07-18T08:28:39;4.45;;;2.30;;
62679;SDS011;48746;55.578;37.902;2022-07-18T08:31:09;4.70;;;2.33;;
62679;SDS011;48746;55.578;37.902;2022-07-18T08:33:35;12.23;;;1.63;;
62679;SDS011;48746;55.578;37.902;2022-07-18T08:36:02;5.38;;;2.00;;
62679;SDS011;48746;55.578;37.902;2022-07-18T08:38:28;3.35;;;1.80;;
62679;SDS011;48746;55.578;37.902;2022-07-18T08:40:55;2.60;;;1.80;;
62679;SDS011;48746;55.578;37.902;2022-07-18T08:43:23;6.60;;;2.15;;
62679;SDS011;48746;55.578;37.902;2022-07-18T08:45:51;6.07;;;1.80;;
62679;SDS011;48746;55.578;37.902;2022-07-18T08:48:21;2.83;;;1.60;;
62679;SDS011;48746;55.578;37.902;2022-07-18T08:50:49;6.80;;;2.00;;
62679;SDS011;48746;55.578;37.902;2022-07-18T08:53:16;4.93;;;1.80;;
62679;SDS011;48746;55.578;37.902;2022-07-18T08:55:43;2.28;;;1.85;;
62679;SDS011;48746;55.578;37.902;2022-07-18T08:58:10;4.40;;;1.77;;
62679;SDS011;48746;55.578;37.902;2022-07-18T09:00:41;6.53;;;1.70;;
62679;SDS011;48746;55.578;37.902;2022-07-18T09:03:07;8.70;;;2.65;;
62679;SDS011;48746;55.578;37.902;2022-07-18T09:05:33;3.85;;;2.25;;
62679;SDS011;48746;55.578;37.902;2022-07-18T09:08:15;4.13;;;2.70;;
62679;SDS011;48746;55.578;37.902;2022-07-18T09:10:50;3.42;;;1.80;;
62679;SDS011;48746;55.578;37.902;2022-07-18T09:13:18;2.13;;;1.65;;
62679;SDS011;48746;55.578;37.902;2022-07-18T09:18:28;3.80;;;2.00;;
62679;SDS011;48746;55.578;37.902;2022-07-18T09:21:06;5.82;;;1.80;;
62679;SDS011;48746;55.578;37.902;2022-07-18T09:23:42;2.95;;;2.00;;
62679;SDS011;48746;55.578;37.902;2022-07-18T09:26:11;8.13;;;2.05;;
62679;SDS011;48746;55.578;37.902;2022-07-18T09:28:47;2.17;;;1.60;;
62679;SDS011;48746;55.578;37.902;2022-07-18T09:31:22;4.93;;;2.17;;
62679;SDS011;48746;55.578;37.902;2022-07-18T09:33:52;6.05;;;2.03;;
62679;SDS011;48746;55.578;37.902;2022-07-18T09:36:20;4.63;;;1.98;;
62679;SDS011;48746;55.578;37.902;2022-07-18T09:38:46;2.35;;;1.42;;
62679;SDS011;48746;55.578;37.902;2022-07-18T09:41:15;6.40;;;1.88;;
62679;SDS011;48746;55.578;37.902;2022-07-18T09:43:42;10.02;;;1.77;;
62679;SDS011;48746;55.578;37.902;2022-07-18T09:46:08;5.22;;;1.77;;
62679;SDS011;48746;55.578;37.902;2022-07-18T09:48:34;5.80;;;2.20;;
62679;SDS011;48746;55.578;37.902;2022-07-18T09:51:07;12.43;;;2.45;;
62679;SDS011;48746;55.578;37.902;2022-07-18T09:53:35;9.50;;;2.03;;
62679;SDS011;48746;55.578;37.902;2022-07-18T09:56:06;6.45;;;1.85;;
62679;SDS011;48746;55.578;37.902;2022-07-18T10:01:17;11.48;;;1.90;;
62679;SDS011;48746;55.578;37.902;2022-07-18T10:03:44;4.17;;;1.60;;
62679;SDS011;48746;55.578;37.902;2022-07-18T10:06:10;3.55;;;1.92;;
62679;SDS011;48746;55.578;37.902;2022-07-18T10:08:37;6.43;;;1.40;;
62679;SDS011;48746;55.578;37.902;2022-07-18T10:11:06;3.92;;;2.00;;
62679;SDS011;48746;55.578;37.902;2022-07-18T10:13:33;3.67;;;2.20;;
62679;SDS011;48746;55.578;37.902;2022-07-18T10:16:01;2.50;;;1.92;;
62679;SDS011;48746;55.578;37.902;2022-07-18T10:18:30;4.00;;;2.22;;
62679;SDS011;48746;55.578;37.902;2022-07-18T10:21:07;3.33;;;1.80;;
62679;SDS011;48746;55.578;37.902;2022-07-18T10:23:39;2.97;;;1.85;;
62679;SDS011;48746;55.578;37.902;2022-07-18T10:26:11;5.35;;;2.05;;
62679;SDS011;48746;55.578;37.902;2022-07-18T10:31:25;4.70;;;2.40;;
62679;SDS011;48746;55.578;37.902;2022-07-18T10:34:09;3.97;;;2.20;;
62679;SDS011;48746;55.578;37.902;2022-07-18T10:36:38;8.15;;;2.28;;
62679;SDS011;48746;55.578;37.902;2022-07-18T10:57:33;6.55;;;2.15;;
62679;SDS011;48746;55.578;37.902;2022-07-18T11:03:27;3.63;;;2.20;;
62679;SDS011;48746;55.578;37.902;2022-07-18T11:05:54;3.92;;;2.05;;
62679;SDS011;48746;55.578;37.902;2022-07-18T11:08:21;4.63;;;2.20;;
62679;SDS011;48746;55.578;37.902;2022-07-18T11:13:57;3.25;;;2.05;;
62679;SDS011;48746;55.578;37.902;2022-07-18T11:16:23;5.57;;;2.25;;
62679;SDS011;48746;55.578;37.902;2022-07-18T11:24:28;4.60;;;2.10;;
62679;SDS011;48746;55.578;37.902;2022-07-18T11:26:54;2.25;;;1.80;;
62679;SDS011;48746;55.578;37.902;2022-07-18T11:29:22;2.50;;;1.77;;
62679;SDS011;48746;55.578;37.902;2022-07-18T11:34:55;3.22;;;2.10;;
62679;SDS011;48746;55.578;37.902;2022-07-18T11:37:22;3.25;;;2.15;;
62679;SDS011;48746;55.578;37.902;2022-07-18T11:39:48;5.60;;;1.80;;
62679;SDS011;48746;55.578;37.902;2022-07-18T11:42:14;3.85;;;2.03;;
62679;SDS011;48746;55.578;37.902;2022-07-18T11:44:42;4.38;;;1.67;;
62679;SDS011;48746;55.578;37.902;2022-07-18T11:47:09;4.50;;;2.00;;
62679;SDS011;48746;55.578;37.902;2022-07-18T11:49:37;3.17;;;2.03;;
62679;SDS011;48746;55.578;37.902;2022-07-18T11:55:11;2.72;;;1.92;;
62679;SDS011;48746;55.578;37.902;2022-07-18T11:57:38;4.28;;;1.98;;
62679;SDS011;48746;55.578;37.902;2022-07-18T12:00:15;3.75;;;2.58;;
62679;SDS011;48746;55.578;37.902;2022-07-18T12:05:52;5.35;;;1.80;;
62679;SDS011;48746;55.578;37.902;2022-07-18T12:11:04;3.67;;;2.13;;
62679;SDS011;48746;55.578;37.902;2022-07-18T12:21:41;4.00;;;1.80;;
62679;SDS011;48746;55.578;37.902;2022-07-18T12:24:26;5.78;;;3.30;;
62679;SDS011;48746;55.578;37.902;2022-07-18T12:27:08;4.18;;;1.92;;
62679;SDS011;48746;55.578;37.902;2022-07-18T12:32:40;2.85;;;1.88;;
62679;SDS011;48746;55.578;37.902;2022-07-18T12:43:33;4.75;;;1.70;;
62679;SDS011;48746;55.578;37.902;2022-07-18T12:46:02;5.18;;;1.90;;
62679;SDS011;48746;55.578;37.902;2022-07-18T12:48:31;3.53;;;1.70;;
62679;SDS011;48746;55.578;37.902;2022-07-18T12:51:08;4.95;;;1.83;;
62679;SDS011;48746;55.578;37.902;2022-07-18T12:53:37;11.40;;;2.53;;
62679;SDS011;48746;55.578;37.902;2022-07-18T12:56:07;15.15;;;2.88;;
62679;SDS011;48746;55.578;37.902;2022-07-18T12:58:34;7.72;;;2.50;;
62679;SDS011;48746;55.578;37.902;2022-07-18T13:01:03;12.40;;;2.88;;
62679;SDS011;48746;55.578;37.902;2022-07-18T13:03:29;10.43;;;3.15;;
62679;SDS011;48746;55.578;37.902;2022-07-18T13:05:56;9.15;;;2.50;;
62679;SDS011;48746;55.578;37.902;2022-07-18T13:08:22;7.47;;;2.72;;
62679;SDS011;48746;55.578;37.902;2022-07-18T13:10:52;9.93;;;2.65;;
62679;SDS011;48746;55.578;37.902;2022-07-18T13:13:18;10.35;;;3.13;;
62679;SDS011;48746;55.578;37.902;2022-07-18T13:15:44;11.15;;;3.45;;
62679;SDS011;48746;55.578;37.902;2022-07-18T13:18:10;9.25;;;2.55;;
62679;SDS011;48746;55.578;37.902;2022-07-18T13:20:40;7.43;;;2.47;;
62679;SDS011;48746;55.578;37.902;2022-07-18T13:23:07;10.93;;;3.35;;
62679;SDS011;48746;55.578;37.902;2022-07-18T13:25:33;9.38;;;2.60;;
62679;SDS011;48746;55.578;37.902;2022-07-18T13:27:59;14.43;;;3.03;;
62679;SDS011;48746;55.578;37.902;2022-07-18T13:33:32;6.43;;;2.20;;
62679;SDS011;48746;55.578;37.902;2022-07-18T13:35:59;8.52;;;2.50;;
62679;SDS011;48746;55.578;37.902;2022-07-18T13:38:25;6.63;;;2.10;;
62679;SDS011;48746;55.578;37.902;2022-07-18T13:40:51;3.25;;;2.00;;
62679;SDS011;48746;55.578;37.902;2022-07-18T13:43:18;8.65;;;2.38;;
62679;SDS011;48746;55.578;37.902;2022-07-18T13:45:45;9.30;;;2.20;;
62679;SDS011;48746;55.578;37.902;2022-07-18T13:48:11;3.38;;;1.80;;
62679;SDS011;48746;55.578;37.902;2022-07-18T13:53:44;3.75;;;2.03;;
62679;SDS011;48746;55.578;37.902;2022-07-18T13:56:10;7.57;;;2.10;;
62679;SDS011;48746;55.578;37.902;2022-07-18T13:58:38;2.88;;;2.10;;
62679;SDS011;48746;55.578;37.902;2022-07-18T14:04:11;3.25;;;1.95;;
62679;SDS011;48746;55.578;37.902;2022-07-18T14:06:37;3.85;;;1.83;;
62679;SDS011;48746;55.578;37.902;2022-07-18T14:09:04;3.15;;;1.80;;
62679;SDS011;48746;55.578;37.902;2022-07-18T14:11:30;4.55;;;2.08;;
62679;SDS011;48746;55.578;37.902;2022-07-18T14:14:00;3.08;;;1.90;;
62679;SDS011;48746;55.578;37.902;2022-07-18T14:16:27;3.40;;;1.90;;
62679;SDS011;48746;55.578;37.902;2022-07-18T14:18:54;5.28;;;2.00;;
62679;SDS011;48746;55.578;37.902;2022-07-18T14:21:23;6.60;;;2.15;;
62679;SDS011;48746;55.578;37.902;2022-07-18T14:23:50;6.00;;;1.90;;
62679;SDS011;48746;55.578;37.902;2022-07-18T14:26:17;4.78;;;2.10;;
62679;SDS011;48746;55.578;37.902;2022-07-18T14:28:43;3.72;;;2.28;;
62679;SDS011;48746;55.578;37.902;2022-07-18T14:31:12;4.45;;;1.88;;
62679;SDS011;48746;55.578;37.902;2022-07-18T14:33:39;4.72;;;2.00;;
62679;SDS011;48746;55.578;37.902;2022-07-18T14:36:05;5.75;;;2.03;;
62679;SDS011;48746;55.578;37.902;2022-07-18T14:38:31;6.97;;;2.20;;
62679;SDS011;48746;55.578;37.902;2022-07-18T14:40:58;2.40;;;1.88;;
62679;SDS011;48746;55.578;37.902;2022-07-18T14:43:24;9.20;;;2.17;;
62679;SDS011;48746;55.578;37.902;2022-07-18T14:45:50;5.68;;;2.17;;
62679;SDS011;48746;55.578;37.902;2022-07-18T14:48:17;2.83;;;2.00;;
62679;SDS011;48746;55.578;37.902;2022-07-18T14:50:46;3.10;;;1.58;;
62679;SDS011;48746;55.578;37.902;2022-07-18T14:53:13;9.68;;;2.10;;
62679;SDS011;48746;55.578;37.902;2022-07-18T14:55:39;5.00;;;2.22;;
62679;SDS011;48746;55.578;37.902;2022-07-18T14:58:05;4.22;;;2.20;;
62679;SDS011;48746;55.578;37.902;2022-07-18T15:00:34;4.35;;;2.17;;
62679;SDS011;48746;55.578;37.902;2022-07-18T15:03:01;6.07;;;2.22;;
62679;SDS011;48746;55.578;37.902;2022-07-18T15:05:27;3.88;;;2.22;;
62679;SDS011;48746;55.578;37.902;2022-07-18T15:07:53;6.55;;;2.38;;
62679;SDS011;48746;55.578;37.902;2022-07-18T15:10:22;7.15;;;2.10;;
62679;SDS011;48746;55.578;37.902;2022-07-18T15:12:48;4.75;;;1.98;;
62679;SDS011;48746;55.578;37.902;2022-07-18T15:15:15;2.78;;;1.60;;
62679;SDS011;48746;55.578;37.902;2022-07-18T15:17:41;5.75;;;2.10;;
62679;SDS011;48746;55.578;37.902;2022-07-18T15:20:07;2.58;;;1.63;;
62679;SDS011;48746;55.578;37.902;2022-07-18T15:22:34;2.75;;;1.60;;
62679;SDS011;48746;55.578;37.902;2022-07-18T15:25:00;3.58;;;1.65;;
62679;SDS011;48746;55.578;37.902;2022-07-18T15:27:28;3.08;;;1.50;;
62679;SDS011;48746;55.578;37.902;2022-07-18T15:29:54;2.55;;;1.70;;
62679;SDS011;48746;55.578;37.902;2022-07-18T15:32:21;1.95;;;1.30;;
62679;SDS011;48746;55.578;37.902;2022-07-18T15:34:47;3.00;;;1.70;;
62679;SDS011;48746;55.578;37.902;2022-07-18T15:37:13;2.03;;;1.05;;
62679;SDS011;48746;55.578;37.902;2022-07-18T15:39:40;1.30;;;1.20;;
62679;SDS011;48746;55.578;37.902;2022-07-18T15:45:13;6.30;;;1.60;;
62679;SDS011;48746;55.578;37.902;2022-07-18T15:47:39;3.53;;;1.30;;
62679;SDS011;48746;55.578;37.902;2022-07-18T15:50:08;2.28;;;1.40;;
62679;SDS011;48746;55.578;37.902;2022-07-18T15:52:35;4.80;;;1.48;;
62679;SDS011;48746;55.578;37.902;2022-07-18T15:55:03;5.72;;;1.60;;
62679;SDS011;48746;55.578;37.902;2022-07-18T15:57:30;8.18;;;1.50;;
62679;SDS011;48746;55.578;37.902;2022-07-18T15:59:56;5.82;;;1.77;;
62679;SDS011;48746;55.578;37.902;2022-07-18T16:02:22;2.78;;;1.20;;
62679;SDS011;48746;55.578;37.902;2022-07-18T16:04:49;4.32;;;1.65;;
62679;SDS011;48746;55.578;37.902;2022-07-18T16:07:15;4.68;;;1.33;;
62679;SDS011;48746;55.578;37.902;2022-07-18T16:09:41;5.40;;;1.80;;
62679;SDS011;48746;55.578;37.902;2022-07-18T16:15:14;4.38;;;1.80;;
62679;SDS011;48746;55.578;37.902;2022-07-18T16:17:40;6.40;;;1.95;;
62679;SDS011;48746;55.578;37.902;2022-07-18T16:20:09;4.35;;;2.00;;
62679;SDS011;48746;55.578;37.902;2022-07-18T16:22:37;6.90;;;2.97;;
62679;SDS011;48746;55.578;37.902;2022-07-18T16:25:04;12.70;;;2.15;;
62679;SDS011;48746;55.578;37.902;2022-07-18T16:27:30;7.70;;;2.35;;
62679;SDS011;48746;55.578;37.902;2022-07-18T16:29:57;7.68;;;2.22;;
62679;SDS011;48746;55.578;37.902;2022-07-18T16:32:23;6.75;;;2.75;;
62679;SDS011;48746;55.578;37.902;2022-07-18T16:34:49;5.03;;;3.35;;
62679;SDS011;48746;55.578;37.902;2022-07-18T16:37:15;10.77;;;2.90;;
62679;SDS011;48746;55.578;37.902;2022-07-18T16:39:42;11.52;;;2.97;;